createdAt,value
2023-05-07T00:01:03.846Z,18.40
2023-05-07T00:03:08.106Z,19.80
2023-05-07T00:05:20.777Z,24.00
2023-05-07T00:07:26.268Z,18.00
2023-05-07T00:09:32.195Z,19.00
2023-05-07T00:11:37.303Z,21.60
2023-05-07T00:13:42.532Z,21.70
2023-05-07T00:15:53.977Z,21.10
2023-05-07T00:17:57.932Z,21.80
2023-05-07T00:20:09.537Z,22.60
2023-05-07T00:22:33.370Z,27.10
2023-05-07T00:24:54.299Z,33.20
2023-05-07T00:26:59.828Z,28.10
2023-05-07T00:29:03.409Z,25.90
2023-05-07T00:31:07.314Z,24.80
2023-05-07T00:33:11.498Z,27.90
2023-05-07T00:35:15.807Z,25.50
2023-05-07T00:37:21.890Z,39.90
2023-05-07T00:39:27.065Z,49.60
2023-05-07T00:41:32.805Z,45.40
2023-05-07T00:43:38.132Z,33.70
2023-05-07T00:45:43.281Z,33.10
2023-05-07T00:48:09.377Z,28.60
2023-05-07T00:50:16.105Z,27.40
2023-05-07T00:52:21.445Z,28.20
2023-05-07T00:54:24.183Z,24.60
2023-05-07T00:56:30.847Z,27.80
2023-05-07T00:58:36.409Z,29.50
2023-05-07T01:00:43.197Z,32.10
2023-05-07T01:02:47.852Z,28.00
2023-05-07T01:04:54.147Z,27.50
2023-05-07T01:06:59.984Z,28.20
2023-05-07T01:09:42.706Z,26.00
2023-05-07T01:11:45.694Z,28.00
2023-05-07T01:13:53.415Z,29.70
2023-05-07T01:15:56.367Z,29.00
2023-05-07T01:18:02.964Z,25.30
2023-05-07T01:20:11.710Z,28.70
2023-05-07T01:22:31.120Z,31.60
2023-05-07T01:24:38.533Z,27.90
2023-05-07T01:26:44.472Z,30.20
2023-05-07T01:28:48.047Z,35.40
2023-05-07T01:31:06.850Z,29.00
2023-05-07T01:33:17.104Z,28.80
2023-05-07T01:35:23.532Z,33.50
2023-05-07T01:37:33.621Z,34.10
2023-05-07T01:39:42.888Z,31.50
2023-05-07T01:41:48.931Z,31.10
2023-05-07T01:43:58.075Z,35.80
2023-05-07T01:46:04.879Z,30.70
2023-05-07T01:48:11.092Z,32.90
2023-05-07T01:50:20.344Z,31.10
2023-05-07T01:52:23.733Z,36.70
2023-05-07T01:54:30.164Z,36.10
2023-05-07T01:56:34.957Z,33.40
2023-05-07T01:58:41.077Z,39.30
2023-05-07T02:00:44.915Z,34.70
2023-05-07T02:02:47.634Z,32.80
2023-05-07T02:05:14.707Z,28.10
2023-05-07T02:07:20.820Z,34.50
2023-05-07T02:09:30.372Z,33.40
2023-05-07T02:11:34.922Z,35.00
2023-05-07T02:13:40.087Z,33.50
2023-05-07T02:15:44.400Z,35.80
2023-05-07T02:18:20.328Z,38.00
2023-05-07T02:20:24.628Z,38.60
2023-05-07T02:22:32.119Z,35.60
2023-05-07T02:24:37.159Z,39.00
2023-05-07T02:26:48.014Z,39.50
2023-05-07T02:28:53.174Z,37.40
2023-05-07T02:31:01.712Z,41.50
2023-05-07T02:33:10.666Z,37.30
2023-05-07T02:37:20.761Z,39.80
2023-05-07T02:39:40.736Z,42.00
2023-05-07T02:41:46.368Z,34.20
2023-05-07T02:43:52.916Z,35.70
2023-05-07T02:46:22.578Z,38.60
2023-05-07T02:48:38.654Z,45.10
2023-05-07T02:52:49.079Z,48.50
2023-05-07T02:54:55.721Z,47.00
2023-05-07T02:57:02.998Z,55.30
2023-05-07T02:59:07.719Z,42.60
2023-05-07T03:01:17.187Z,43.90
2023-05-07T03:03:37.796Z,43.80
2023-05-07T03:05:43.154Z,42.50
2023-05-07T03:07:48.636Z,44.30
2023-05-07T03:10:11.011Z,41.90
2023-05-07T03:12:34.369Z,42.80
2023-05-07T03:14:52.976Z,44.20
2023-05-07T03:17:11.115Z,40.90
2023-05-07T03:19:15.703Z,44.90
2023-05-07T03:21:29.144Z,43.30
2023-05-07T03:23:34.377Z,46.50
2023-05-07T03:25:43.800Z,44.40
2023-05-07T03:27:47.137Z,50.90
2023-05-07T03:32:06.835Z,54.60
2023-05-07T03:34:11.699Z,50.10
2023-05-07T03:36:16.039Z,47.70
2023-05-07T03:38:19.896Z,41.60
2023-05-07T03:40:22.968Z,46.50
2023-05-07T03:42:29.740Z,44.90
2023-05-07T03:44:42.568Z,47.80
2023-05-07T03:47:19.964Z,48.90
2023-05-07T03:49:23.354Z,46.10
2023-05-07T03:51:28.021Z,44.70
2023-05-07T03:53:33.777Z,42.30
2023-05-07T03:55:39.668Z,47.70
2023-05-07T03:57:43.686Z,52.80
2023-05-07T03:59:49.834Z,51.90
2023-05-07T04:01:54.084Z,45.40
2023-05-07T04:04:02.949Z,54.70
2023-05-07T04:06:19.343Z,49.40
2023-05-07T04:08:28.932Z,51.20
2023-05-07T04:10:34.753Z,48.90
2023-05-07T04:12:58.749Z,46.70
2023-05-07T04:15:16.581Z,45.90
2023-05-07T04:17:21.106Z,43.40
2023-05-07T04:19:26.227Z,45.60
2023-05-07T04:21:32.952Z,47.20
2023-05-07T04:23:35.825Z,40.80
2023-05-07T04:25:43.140Z,41.40
2023-05-07T04:27:59.943Z,42.00
2023-05-07T04:30:07.217Z,41.60
2023-05-07T04:32:14.730Z,53.60
2023-05-07T04:34:19.247Z,50.30
2023-05-07T04:36:28.979Z,49.10
2023-05-07T04:38:43.589Z,46.30
2023-05-07T04:41:02.354Z,45.70
2023-05-07T04:43:05.807Z,44.30
2023-05-07T04:45:13.426Z,46.40
2023-05-07T04:47:18.592Z,43.80
2023-05-07T04:49:24.397Z,46.30
2023-05-07T04:51:28.254Z,41.60
2023-05-07T04:53:33.724Z,41.00
2023-05-07T04:55:38.089Z,43.30
2023-05-07T04:57:42.596Z,43.30
2023-05-07T04:59:50.421Z,41.10
2023-05-07T05:01:54.770Z,42.50
2023-05-07T05:03:57.784Z,47.40
2023-05-07T05:06:01.818Z,54.20
2023-05-07T05:08:13.589Z,54.60
2023-05-07T05:10:40.348Z,46.80
2023-05-07T05:12:57.514Z,46.20
2023-05-07T05:15:34.062Z,50.00
2023-05-07T05:17:52.518Z,36.10
2023-05-07T05:19:57.310Z,48.50
2023-05-07T05:22:02.288Z,46.60
2023-05-07T05:24:08.144Z,42.30
2023-05-07T05:26:11.034Z,46.00
2023-05-07T05:28:13.853Z,41.60
2023-05-07T05:30:17.352Z,42.00
2023-05-07T05:32:21.967Z,39.20
2023-05-07T05:34:27.372Z,44.20
2023-05-07T05:36:32.351Z,44.90
2023-05-07T05:38:37.947Z,42.70
2023-05-07T05:40:42.973Z,46.10
2023-05-07T05:42:48.218Z,45.90
2023-05-07T05:45:01.690Z,52.30
2023-05-07T05:47:07.112Z,42.10
2023-05-07T05:49:14.974Z,39.40
2023-05-07T05:51:19.506Z,42.50
2023-05-07T05:53:22.727Z,43.60
2023-05-07T05:55:28.786Z,39.50
2023-05-07T05:57:33.391Z,41.50
2023-05-07T05:59:37.518Z,44.50
2023-05-07T06:01:45.116Z,45.40
2023-05-07T06:03:52.504Z,41.70
2023-05-07T06:05:55.997Z,40.10
2023-05-07T06:08:48.118Z,37.90
2023-05-07T06:10:54.670Z,37.80
2023-05-07T06:13:02.889Z,29.90
2023-05-07T06:15:08.550Z,37.10
2023-05-07T06:17:15.096Z,39.50
2023-05-07T06:19:19.238Z,42.50
2023-05-07T06:21:23.773Z,37.10
2023-05-07T06:23:28.731Z,35.60
2023-05-07T06:25:33.978Z,43.50
2023-05-07T06:27:44.066Z,37.90
2023-05-07T06:29:50.229Z,38.80
2023-05-07T06:31:58.199Z,43.40
2023-05-07T06:34:03.562Z,45.70
2023-05-07T06:36:12.555Z,27.20
2023-05-07T06:38:17.882Z,39.00
2023-05-07T06:42:43.910Z,39.80
2023-05-07T06:45:24.929Z,43.20
2023-05-07T06:47:44.935Z,44.30
2023-05-07T06:49:48.283Z,43.60
2023-05-07T06:51:55.748Z,35.60
2023-05-07T06:53:59.641Z,34.50
2023-05-07T06:56:05.676Z,41.70
2023-05-07T06:58:09.216Z,38.80
2023-05-07T07:00:23.068Z,43.20
2023-05-07T07:02:32.107Z,41.80
2023-05-07T07:04:39.692Z,47.90
2023-05-07T07:06:45.945Z,40.10
2023-05-07T07:08:50.083Z,43.70
2023-05-07T07:10:58.035Z,41.80
2023-05-07T07:13:03.303Z,41.20
2023-05-07T07:15:09.338Z,42.40
2023-05-07T07:17:17.223Z,40.00
2023-05-07T07:19:24.337Z,38.50
2023-05-07T07:21:31.530Z,32.90
2023-05-07T07:23:34.995Z,35.30
2023-05-07T07:25:40.516Z,46.00
2023-05-07T07:27:46.058Z,45.30
2023-05-07T07:29:49.321Z,38.60
2023-05-07T07:31:54.398Z,38.10
2023-05-07T07:34:01.135Z,43.70
2023-05-07T07:36:08.983Z,39.10
2023-05-07T07:38:17.634Z,47.50
2023-05-07T07:40:21.491Z,42.90
2023-05-07T07:42:30.376Z,38.50
2023-05-07T07:44:38.346Z,42.20
2023-05-07T07:46:47.267Z,43.30
2023-05-07T07:48:52.615Z,38.50
2023-05-07T07:50:58.966Z,40.60
2023-05-07T07:53:08.846Z,47.00
2023-05-07T07:55:16.611Z,39.50
2023-05-07T07:57:23.249Z,38.70
2023-05-07T07:59:32.198Z,40.30
2023-05-07T08:01:38.666Z,37.00
2023-05-07T08:03:49.540Z,41.10
2023-05-07T08:06:00.267Z,37.70
2023-05-07T08:08:04.442Z,29.40
2023-05-07T08:10:10.394Z,40.00
2023-05-07T08:12:18.182Z,38.00
2023-05-07T08:14:21.365Z,36.20
2023-05-07T08:16:28.491Z,38.30
2023-05-07T08:18:34.384Z,35.40
2023-05-07T08:20:41.502Z,44.80
2023-05-07T08:22:47.744Z,35.60
2023-05-07T08:24:55.853Z,43.80
2023-05-07T08:27:00.005Z,39.70
2023-05-07T08:29:04.258Z,37.60
2023-05-07T08:31:13.185Z,39.90
2023-05-07T08:33:19.008Z,35.50
2023-05-07T08:35:23.200Z,33.50
2023-05-07T08:37:27.441Z,32.50
2023-05-07T08:39:48.498Z,35.80
2023-05-07T08:42:00.839Z,36.50
2023-05-07T08:44:07.817Z,38.10
2023-05-07T08:46:14.172Z,38.60
2023-05-07T08:48:21.362Z,38.30
2023-05-07T08:50:36.556Z,28.70
2023-05-07T08:52:44.782Z,31.20
2023-05-07T08:55:07.338Z,32.70
2023-05-07T08:57:10.914Z,31.20
2023-05-07T08:59:20.941Z,37.40
2023-05-07T09:01:27.173Z,31.10
2023-05-07T09:03:34.502Z,33.00
2023-05-07T09:05:38.156Z,31.00
2023-05-07T09:07:44.541Z,31.40
2023-05-07T09:10:07.839Z,33.30
2023-05-07T09:12:20.060Z,34.70
2023-05-07T09:14:30.754Z,31.80
2023-05-07T09:16:37.232Z,25.00
2023-05-07T09:18:55.262Z,24.80
2023-05-07T09:23:04.587Z,27.40
2023-05-07T09:25:12.674Z,26.70
2023-05-07T09:27:22.675Z,28.00
2023-05-07T09:29:26.040Z,26.70
2023-05-07T09:31:29.071Z,25.00
2023-05-07T09:33:32.423Z,26.70
2023-05-07T09:35:36.672Z,24.70
2023-05-07T09:37:42.714Z,25.40
2023-05-07T09:39:47.915Z,23.90
2023-05-07T09:41:55.629Z,22.70
2023-05-07T09:44:08.904Z,25.60
2023-05-07T09:46:17.837Z,22.90
2023-05-07T09:48:27.224Z,24.20
2023-05-07T09:52:46.659Z,19.50
2023-05-07T09:54:51.397Z,20.20
2023-05-07T09:56:56.308Z,24.10
2023-05-07T09:59:02.761Z,23.30
2023-05-07T10:01:08.841Z,21.70
2023-05-07T10:03:13.987Z,24.20
2023-05-07T10:05:27.409Z,23.30
2023-05-07T10:07:31.549Z,22.00
2023-05-07T10:09:43.886Z,22.50
2023-05-07T10:11:52.414Z,19.80
2023-05-07T10:14:06.912Z,20.80
2023-05-07T10:16:21.319Z,23.00
2023-05-07T10:18:31.003Z,21.00
2023-05-07T10:20:40.587Z,19.70
2023-05-07T10:22:48.122Z,15.30
2023-05-07T10:24:55.531Z,19.30
2023-05-07T10:27:03.567Z,16.70
2023-05-07T10:29:16.919Z,20.20
2023-05-07T10:32:18.876Z,22.90
2023-05-07T10:34:28.897Z,17.80
2023-05-07T10:36:38.460Z,17.20
2023-05-07T10:38:44.738Z,18.20
2023-05-07T10:40:48.481Z,21.80
2023-05-07T10:43:03.895Z,16.70
2023-05-07T10:48:27.227Z,18.30
2023-05-07T10:50:33.869Z,19.40
2023-05-07T10:52:38.373Z,16.10
2023-05-07T10:55:15.777Z,18.20
2023-05-07T10:57:34.012Z,17.70
2023-05-07T10:59:43.497Z,17.50
2023-05-07T11:02:00.798Z,17.50
2023-05-07T11:04:17.441Z,17.20
2023-05-07T11:06:40.676Z,14.60
2023-05-07T11:08:59.786Z,16.10
2023-05-07T11:12:00.720Z,14.90
2023-05-07T11:14:10.287Z,14.40
2023-05-07T11:16:27.731Z,16.80
2023-05-07T11:18:51.140Z,14.50
2023-05-07T11:21:08.107Z,14.50
2023-05-07T11:23:33.149Z,13.40
2023-05-07T11:25:44.322Z,14.30
2023-05-07T11:27:53.557Z,13.40
2023-05-07T11:29:57.643Z,13.40
2023-05-07T11:32:04.333Z,12.50
2023-05-07T11:34:12.424Z,15.80
2023-05-07T11:36:15.489Z,13.50
2023-05-07T11:38:23.522Z,14.00
2023-05-07T11:40:26.300Z,13.10
2023-05-07T11:42:30.409Z,9.90
2023-05-07T11:44:47.480Z,13.10
2023-05-07T11:48:55.224Z,11.70
2023-05-07T11:51:04.433Z,12.60
2023-05-07T11:53:14.012Z,12.70
2023-05-07T11:55:20.402Z,11.60
2023-05-07T11:57:28.331Z,17.40
2023-05-07T11:59:39.759Z,10.90
2023-05-07T12:01:46.906Z,12.00
2023-05-07T12:03:51.239Z,15.40
2023-05-07T12:05:54.365Z,12.80
2023-05-07T12:08:00.357Z,12.70
2023-05-07T12:10:07.745Z,13.30
2023-05-07T12:12:11.653Z,12.80
2023-05-07T12:14:17.181Z,12.30
2023-05-07T12:16:20.974Z,10.50
2023-05-07T12:18:26.798Z,9.40
2023-05-07T12:20:30.734Z,10.80
2023-05-07T12:22:34.112Z,10.90
2023-05-07T12:24:49.792Z,12.10
2023-05-07T12:26:56.095Z,12.60
2023-05-07T12:28:59.297Z,10.40
2023-05-07T12:31:02.926Z,14.90
2023-05-07T12:33:07.227Z,10.80
2023-05-07T12:35:10.424Z,11.90
2023-05-07T12:37:14.205Z,13.10
2023-05-07T12:39:19.503Z,14.40
2023-05-07T12:41:29.239Z,12.10
2023-05-07T12:43:32.507Z,12.40
2023-05-07T12:45:40.031Z,12.50
2023-05-07T12:47:47.325Z,12.20
2023-05-07T12:49:50.165Z,12.00
2023-05-07T12:51:54.639Z,11.70
2023-05-07T12:54:01.144Z,10.30
2023-05-07T12:56:06.679Z,12.20
2023-05-07T12:58:17.392Z,11.00
2023-05-07T13:00:48.698Z,13.00
2023-05-07T13:02:51.750Z,9.80
2023-05-07T13:04:54.925Z,10.60
2023-05-07T13:06:57.845Z,10.90
2023-05-07T13:09:00.822Z,11.20
2023-05-07T13:11:05.343Z,10.50
2023-05-07T13:13:08.813Z,13.80
2023-05-07T13:15:12.531Z,13.50
2023-05-07T13:17:17.636Z,12.70
2023-05-07T13:19:21.301Z,13.40
2023-05-07T13:21:26.782Z,10.70
2023-05-07T13:23:41.636Z,15.20
2023-05-07T13:25:44.723Z,13.90
2023-05-07T13:27:49.793Z,12.80
2023-05-07T13:29:59.757Z,13.20
2023-05-07T13:32:03.280Z,10.70
2023-05-07T13:34:06.441Z,10.10
2023-05-07T13:36:10.973Z,17.80
2023-05-07T13:38:13.689Z,15.10
2023-05-07T13:40:17.540Z,11.50
2023-05-07T13:42:20.555Z,13.30
2023-05-07T13:44:24.417Z,14.50
2023-05-07T13:46:27.738Z,11.30
2023-05-07T13:48:31.117Z,12.40
2023-05-07T13:50:34.240Z,13.40
2023-05-07T13:52:39.082Z,17.90
2023-05-07T13:54:42.020Z,15.00
2023-05-07T13:56:44.822Z,11.10
2023-05-07T13:58:58.953Z,12.90
2023-05-07T14:01:03.096Z,11.90
2023-05-07T14:03:07.192Z,12.20
2023-05-07T14:05:11.217Z,13.20
2023-05-07T14:07:14.122Z,11.50
2023-05-07T14:09:19.428Z,12.90
2023-05-07T14:11:22.359Z,13.90
2023-05-07T14:13:25.168Z,11.70
2023-05-07T14:15:29.789Z,12.10
2023-05-07T14:17:33.575Z,12.50
2023-05-07T14:19:36.694Z,13.20
2023-05-07T14:21:39.954Z,15.20
2023-05-07T14:23:44.656Z,13.60
2023-05-07T14:25:48.690Z,13.30
2023-05-07T14:27:51.568Z,14.50
2023-05-07T14:29:54.479Z,15.30
2023-05-07T14:31:57.996Z,15.30
2023-05-07T14:34:00.824Z,11.80
2023-05-07T14:36:05.704Z,13.20
2023-05-07T14:38:08.417Z,10.00
2023-05-07T14:40:13.018Z,13.30
2023-05-07T14:42:17.858Z,13.10
2023-05-07T14:44:22.155Z,10.80
2023-05-07T14:46:27.024Z,11.70
2023-05-07T14:48:48.392Z,10.20
2023-05-07T14:50:54.553Z,9.10
2023-05-07T14:53:04.870Z,12.60
2023-05-07T14:55:09.911Z,13.50
2023-05-07T14:57:21.358Z,12.40
2023-05-07T14:59:33.196Z,14.80
2023-05-07T15:01:42.472Z,14.60
2023-05-07T15:03:46.267Z,11.20
2023-05-07T15:05:51.812Z,11.70
2023-05-07T15:07:57.437Z,15.30
2023-05-07T15:10:00.531Z,10.90
2023-05-07T15:12:04.299Z,12.60
2023-05-07T15:14:08.299Z,10.50
2023-05-07T15:16:11.589Z,15.20
2023-05-07T15:18:16.810Z,12.00
2023-05-07T15:20:20.349Z,10.50
2023-05-07T15:22:27.975Z,9.50
2023-05-07T15:24:32.436Z,11.70
2023-05-07T15:26:40.353Z,11.20
2023-05-07T15:28:43.108Z,14.10
2023-05-07T15:30:46.350Z,10.20
2023-05-07T15:32:50.068Z,9.90
2023-05-07T15:34:53.921Z,11.40
2023-05-07T15:36:58.518Z,10.30
2023-05-07T15:39:08.961Z,12.90
2023-05-07T15:41:13.349Z,10.90
2023-05-07T15:43:18.300Z,11.80
2023-05-07T15:45:21.626Z,12.30
2023-05-07T15:47:24.605Z,12.00
2023-05-07T15:49:30.063Z,11.50
2023-05-07T15:51:37.298Z,12.70
2023-05-07T15:53:41.202Z,15.40
2023-05-07T15:55:46.243Z,12.30
2023-05-07T15:57:52.233Z,14.00
2023-05-07T15:59:57.096Z,11.40
2023-05-07T16:02:01.760Z,10.40
2023-05-07T16:04:06.270Z,10.90
2023-05-07T16:06:14.194Z,12.80
2023-05-07T16:08:20.957Z,13.80
2023-05-07T16:10:24.835Z,15.60
2023-05-07T16:12:30.028Z,15.40
2023-05-07T16:14:32.911Z,14.30
2023-05-07T16:16:36.418Z,15.20
2023-05-07T16:18:39.711Z,13.00
2023-05-07T16:20:43.978Z,15.80
2023-05-07T16:22:47.453Z,9.90
2023-05-07T16:24:50.047Z,13.60
2023-05-07T16:26:52.719Z,11.30
2023-05-07T16:28:55.481Z,13.40
2023-05-07T16:30:58.594Z,15.40
2023-05-07T16:33:03.746Z,14.20
2023-05-07T16:35:08.295Z,12.10
2023-05-07T16:37:12.069Z,14.30
2023-05-07T16:39:16.019Z,16.30
2023-05-07T16:41:22.174Z,13.50
2023-05-07T16:43:25.747Z,12.50
2023-05-07T16:45:31.462Z,12.60
2023-05-07T16:47:34.367Z,12.20
2023-05-07T16:49:36.971Z,15.30
2023-05-07T16:51:43.373Z,16.20
2023-05-07T16:53:48.041Z,12.30
2023-05-07T16:56:16.458Z,10.80
2023-05-07T16:58:23.156Z,21.90
2023-05-07T17:00:32.018Z,14.00
2023-05-07T17:02:43.586Z,14.50
2023-05-07T17:04:47.977Z,13.40
2023-05-07T17:06:53.592Z,12.50
2023-05-07T17:08:56.545Z,13.40
2023-05-07T17:11:02.752Z,10.80
2023-05-07T17:13:06.025Z,14.00
2023-05-07T17:15:11.508Z,11.60
2023-05-07T17:17:17.199Z,9.90
2023-05-07T17:19:20.421Z,13.00
2023-05-07T17:21:24.603Z,10.80
2023-05-07T17:23:33.772Z,10.00
2023-05-07T17:25:37.439Z,12.00
2023-05-07T17:27:40.442Z,12.00
2023-05-07T17:29:45.570Z,11.70
2023-05-07T17:31:50.350Z,14.20
2023-05-07T17:33:59.214Z,11.20
2023-05-07T17:36:03.258Z,10.70
2023-05-07T17:38:16.045Z,9.70
2023-05-07T17:40:29.614Z,12.70
2023-05-07T17:42:49.402Z,12.00
2023-05-07T17:44:55.583Z,13.30
2023-05-07T17:46:58.379Z,16.10
2023-05-07T17:49:01.012Z,10.80
2023-05-07T17:51:04.591Z,12.30
2023-05-07T17:53:09.976Z,10.90
2023-05-07T17:55:13.689Z,12.90
2023-05-07T17:57:18.444Z,10.50
2023-05-07T17:59:22.387Z,11.10
2023-05-07T18:01:26.557Z,9.30
2023-05-07T18:03:30.698Z,11.70
2023-05-07T18:05:37.277Z,14.80
2023-05-07T18:07:42.064Z,11.30
2023-05-07T18:09:50.539Z,12.30
2023-05-07T18:11:53.415Z,12.60
2023-05-07T18:14:09.765Z,10.70
2023-05-07T18:16:13.234Z,12.00
2023-05-07T18:18:19.016Z,11.30
2023-05-07T18:20:22.226Z,10.10
2023-05-07T18:22:26.399Z,10.60
2023-05-07T18:24:30.584Z,10.60
2023-05-07T18:26:37.780Z,11.30
2023-05-07T18:28:41.647Z,9.60
2023-05-07T18:30:44.837Z,9.20
2023-05-07T18:32:48.108Z,9.30
2023-05-07T18:34:51.626Z,9.30
2023-05-07T18:36:57.454Z,14.20
2023-05-07T18:39:06.575Z,10.60
2023-05-07T18:41:10.362Z,12.00
2023-05-07T18:43:15.659Z,10.20
2023-05-07T18:45:20.897Z,11.60
2023-05-07T18:47:25.091Z,11.40
2023-05-07T18:49:31.210Z,9.10
2023-05-07T18:51:34.420Z,10.80
2023-05-07T18:53:44.684Z,9.80
2023-05-07T18:55:53.228Z,13.10
2023-05-07T18:57:58.530Z,12.80
2023-05-07T19:00:08.154Z,11.30
2023-05-07T19:02:15.814Z,13.00
2023-05-07T19:04:21.530Z,10.70
2023-05-07T19:06:24.690Z,14.10
2023-05-07T19:08:27.347Z,11.90
2023-05-07T19:10:36.464Z,13.00
2023-05-07T19:12:41.323Z,11.30
2023-05-07T19:14:52.262Z,15.60
2023-05-07T19:16:59.000Z,12.20
2023-05-07T19:19:06.318Z,12.90
2023-05-07T19:21:14.470Z,12.70
2023-05-07T19:23:17.498Z,13.20
2023-05-07T19:25:21.888Z,14.20
2023-05-07T19:27:26.817Z,15.60
2023-05-07T19:29:29.970Z,18.80
2023-05-07T19:31:33.798Z,15.90
2023-05-07T19:33:39.524Z,15.80
2023-05-07T19:35:48.525Z,14.90
2023-05-07T19:37:51.816Z,15.90
2023-05-07T19:39:55.124Z,11.50
2023-05-07T19:41:58.536Z,15.80
2023-05-07T19:44:01.888Z,16.70
2023-05-07T19:46:07.275Z,16.10
2023-05-07T19:48:11.352Z,13.70
2023-05-07T19:50:15.107Z,14.70
2023-05-07T19:52:18.117Z,16.40
2023-05-07T19:54:23.724Z,20.80
2023-05-07T19:56:26.750Z,16.70
2023-05-07T19:58:30.426Z,17.70
2023-05-07T20:00:34.364Z,18.70
2023-05-07T20:02:38.969Z,18.40
2023-05-07T20:04:44.186Z,16.40
2023-05-07T20:06:47.206Z,15.60
2023-05-07T20:08:51.375Z,17.50
2023-05-07T20:10:54.594Z,17.70
2023-05-07T20:12:57.499Z,14.90
2023-05-07T20:15:01.465Z,17.50
2023-05-07T20:17:06.837Z,16.20
2023-05-07T20:19:09.654Z,12.30
2023-05-07T20:21:12.739Z,18.60
2023-05-07T20:23:15.763Z,19.00
2023-05-07T20:25:18.896Z,16.80
2023-05-07T20:27:24.844Z,17.60
2023-05-07T20:29:28.679Z,19.00
2023-05-07T20:31:32.385Z,20.60
2023-05-07T20:33:35.095Z,17.80
2023-05-07T20:35:38.336Z,19.70
2023-05-07T20:37:41.170Z,18.40
2023-05-07T20:39:45.096Z,19.40
2023-05-07T20:41:51.488Z,20.20
2023-05-07T20:43:54.707Z,18.50
2023-05-07T20:46:04.441Z,17.20
2023-05-07T20:48:07.324Z,17.20
2023-05-07T20:50:11.846Z,16.40
2023-05-07T20:52:14.817Z,16.70
2023-05-07T20:54:18.527Z,15.90
2023-05-07T20:56:23.597Z,18.90
2023-05-07T20:58:28.695Z,19.10
2023-05-07T21:00:31.505Z,20.40
2023-05-07T21:02:34.479Z,16.20
2023-05-07T21:04:37.458Z,18.60
2023-05-07T21:06:40.919Z,20.80
2023-05-07T21:08:43.950Z,18.50
2023-05-07T21:10:47.647Z,19.20
2023-05-07T21:12:51.447Z,14.10
2023-05-07T21:14:55.098Z,18.30
2023-05-07T21:17:00.342Z,18.60
2023-05-07T21:19:03.941Z,17.20
2023-05-07T21:21:10.799Z,20.90
2023-05-07T21:23:13.454Z,20.90
2023-05-07T21:25:16.466Z,19.80
2023-05-07T21:27:19.180Z,18.30
2023-05-07T21:29:22.553Z,18.60
2023-05-07T21:31:25.428Z,19.50
2023-05-07T21:33:30.292Z,21.40
2023-05-07T21:35:38.180Z,21.80
2023-05-07T21:37:41.067Z,19.20
2023-05-07T21:39:44.414Z,18.00
2023-05-07T21:41:48.249Z,19.80
2023-05-07T21:43:54.086Z,22.70
2023-05-07T21:45:56.871Z,19.10
2023-05-07T21:47:59.632Z,19.20
2023-05-07T21:50:03.201Z,20.90
2023-05-07T21:52:10.688Z,18.80
2023-05-07T21:54:15.695Z,19.80
2023-05-07T21:56:18.426Z,20.20
2023-05-07T21:58:21.104Z,18.70
2023-05-07T22:00:24.589Z,20.90
2023-05-07T22:02:27.995Z,21.20
2023-05-07T22:04:33.533Z,23.60
2023-05-07T22:06:38.492Z,21.10
2023-05-07T22:08:41.419Z,20.90
2023-05-07T22:10:44.977Z,21.30
2023-05-07T22:12:48.227Z,20.40
2023-05-07T22:14:51.153Z,21.40
2023-05-07T22:16:54.004Z,22.90
2023-05-07T22:18:56.939Z,21.00
2023-05-07T22:20:59.590Z,20.70
2023-05-07T22:23:02.239Z,21.70
2023-05-07T22:25:05.296Z,20.00
2023-05-07T22:27:07.848Z,21.80
2023-05-07T22:29:11.716Z,20.90
2023-05-07T22:31:14.771Z,18.30
2023-05-07T22:33:17.688Z,19.90
2023-05-07T22:35:20.492Z,21.00
2023-05-07T22:37:24.889Z,22.00
2023-05-07T22:41:37.836Z,19.40
2023-05-07T22:43:40.631Z,22.40
2023-05-07T22:45:43.439Z,20.40
2023-05-07T22:47:46.232Z,21.20
2023-05-07T22:49:49.888Z,18.70
2023-05-07T22:51:52.524Z,23.80
2023-05-07T22:53:55.178Z,22.40
2023-05-07T22:55:58.695Z,21.90
2023-05-07T22:58:02.245Z,21.80
2023-05-07T23:00:07.988Z,17.80
2023-05-07T23:02:11.796Z,18.80
2023-05-07T23:04:14.671Z,21.10
2023-05-07T23:06:17.310Z,18.90
2023-05-07T23:08:20.420Z,19.50
2023-05-07T23:10:23.866Z,20.50
2023-05-07T23:12:26.964Z,21.80
2023-05-07T23:14:30.498Z,20.70
2023-05-07T23:16:37.195Z,23.20
2023-05-07T23:18:40.733Z,20.50
2023-05-07T23:20:44.124Z,19.40
2023-05-07T23:22:46.794Z,20.50
2023-05-07T23:24:49.459Z,18.60
2023-05-07T23:26:52.059Z,19.10
2023-05-07T23:28:54.828Z,21.20
2023-05-07T23:30:58.667Z,19.50
2023-05-07T23:33:02.709Z,16.90
2023-05-07T23:35:07.490Z,18.30
2023-05-07T23:37:11.676Z,21.50
2023-05-07T23:39:22.056Z,19.50
2023-05-07T23:41:28.420Z,18.90
2023-05-07T23:43:31.572Z,22.90
2023-05-07T23:45:34.338Z,21.50
2023-05-07T23:47:36.890Z,21.20
2023-05-07T23:49:39.864Z,22.20
2023-05-07T23:51:42.712Z,22.10
2023-05-07T23:53:46.078Z,20.60
2023-05-07T23:55:49.883Z,21.20
2023-05-07T23:57:52.564Z,22.50
2023-05-07T23:59:55.315Z,20.70
